Aviation Digital Data Service (ADDS)

Output produced by METARs form (0225 UTC 24 October 2019)
found at http://www.aviationweather.gov/metar/data/
 
Forecast for: OEMA (MADINAH INTL ARP, SA)
Text: TAF OEMA 232300Z 2400/2506 VRB03KT 9999 FEW045
Forecast period: 0000 to 0800 UTC 24 October 2019
Forecast type: FROM: standard forecast or significant change
Winds: variable direction winds at 3 MPH (3 knots; 1.5 m/s)
Visibility: 6 or more miles 10+ km)
Ceiling: at least 12,000 feet AGL
Clouds: few clouds at 4500 feet AGL
Weather: no significant weather forecast for this period
Text: TEMPO 2400/2412 VRB20KT 4000 BLDU TSRA FEW030CB SCT045
Forecast period: 0000 to 1200 UTC 24 October 2019
Forecast type: TEMPORARY: The following changes expected for less than half the time period
Winds: variable direction winds at 23 MPH (20 knots; 10.3 m/s)
Visibility: 2.49 miles (4.01 km)
Ceiling: at least 12,000 feet AGL
Clouds: few clouds at 3000 feet AGL
scattered clouds at 4500 feet AGL
Weather: BLDU TSRA  (blowing dust, rain associated with thunderstorm(s))
Text: BECMG 2408/2410 20015KT
Forecast period: 0800 UTC 24 October 2019 to 0600 UTC 25 October 2019
Forecast type: BECOMING: Conditions expected to become as follows by 1000 UTC 24 October 2019
Winds: from the SSW (200 degrees) at 17 MPH (15 knots; 7.7 m/s)
Visibility: 6 or more miles 10+ km)
Ceiling: at least 12,000 feet AGL
Clouds: few clouds at 4500 feet AGL
Weather: no significant weather forecast for this period